Terminal Aerodrome Forecast
Issued by NWS Wilmington, OH

Current Version | Previous Version | Graphics & Text | Print | Product List | Glossary On
Versions: 1 2 3 4 5 6 7 8 9 10 11 12 13 14 15 16 17 18 19 20 21 22 23 24 25 26 27 28
000
FTUS41 KILN 271100
TAFDAY
TAF
KDAY 271131Z 2712/2812 21008KT P6SM SCT015
      TEMPO 2712/2714 BKN015
     FM271400 22012G20KT P6SM FEW035
     FM271900 23014G24KT P6SM VCTS BKN035CB
     FM272300 24012KT P6SM FEW040 BKN100
     FM280500 26004KT P6SM FEW050=

USA.gov is the U.S. government's official web portal to all federal, state and local government web resources and services.